createdAt,value
2023-04-12T00:01:10.779Z,0.93
2023-04-12T00:03:39.511Z,0.96
2023-04-12T00:06:07.506Z,0.99
2023-04-12T00:08:35.607Z,1.02
2023-04-12T00:11:03.402Z,1.06
2023-04-12T00:13:30.773Z,1.05
2023-04-12T00:15:58.374Z,1.11
2023-04-12T00:18:25.875Z,1.19
2023-04-12T00:20:54.644Z,1.23
2023-04-12T00:23:22.583Z,1.30
2023-04-12T00:25:50.669Z,1.37
2023-04-12T00:28:18.005Z,1.41
2023-04-12T00:30:45.811Z,1.51
2023-04-12T00:33:13.478Z,1.64
2023-04-12T00:35:40.853Z,1.65
2023-04-12T00:38:10.283Z,1.69
2023-04-12T00:40:44.345Z,1.78
2023-04-12T00:43:18.145Z,1.79
2023-04-12T00:45:48.642Z,1.88
2023-04-12T00:48:15.975Z,1.93
2023-04-12T00:50:44.569Z,2.00
2023-04-12T00:53:13.568Z,2.04
2023-04-12T00:55:41.980Z,2.17
2023-04-12T00:58:09.347Z,2.24
2023-04-12T01:00:36.599Z,2.33
2023-04-12T01:03:05.296Z,2.45
2023-04-12T01:05:34.373Z,2.60
2023-04-12T01:08:19.299Z,2.77
2023-04-12T01:11:03.685Z,3.02
2023-04-12T01:13:53.087Z,3.33
2023-04-12T01:16:26.424Z,3.60
2023-04-12T01:18:57.779Z,3.84
2023-04-12T01:21:41.638Z,4.20
2023-04-12T01:24:52.744Z,4.48
2023-04-12T01:27:35.309Z,4.93
2023-04-12T01:30:02.532Z,5.23
2023-04-12T01:32:30.070Z,5.45
2023-04-12T01:34:57.835Z,6.04
2023-04-12T01:37:25.334Z,6.53
2023-04-12T01:39:53.355Z,6.87
2023-04-12T01:42:20.716Z,7.30
2023-04-12T01:44:48.691Z,8.13
2023-04-12T01:47:16.140Z,8.45
2023-04-12T01:50:13.271Z,8.54
2023-04-12T01:52:45.111Z,8.81
2023-04-12T01:55:12.715Z,9.30
2023-04-12T01:57:40.409Z,9.62
2023-04-12T02:00:10.448Z,10.31
2023-04-12T02:02:40.868Z,10.77
2023-04-12T02:05:09.091Z,11.06
2023-04-12T02:07:37.303Z,11.03
2023-04-12T02:10:04.729Z,11.07
2023-04-12T02:12:32.093Z,11.03
2023-04-12T02:15:00.376Z,11.07
2023-04-12T02:17:29.377Z,10.94
2023-04-12T02:19:57.594Z,10.58
2023-04-12T02:22:24.581Z,10.39
2023-04-12T02:24:51.908Z,10.31
2023-04-12T02:27:19.272Z,10.06
2023-04-12T02:29:47.013Z,9.31
2023-04-12T02:32:15.407Z,9.10
2023-04-12T02:34:44.267Z,9.17
2023-04-12T02:37:17.950Z,9.23
2023-04-12T02:39:45.344Z,8.75
2023-04-12T02:42:12.932Z,8.99
2023-04-12T02:44:43.498Z,9.32
2023-04-12T02:47:13.198Z,9.16
2023-04-12T02:49:43.944Z,9.10
2023-04-12T02:52:14.431Z,8.59
2023-04-12T02:54:57.322Z,8.57
2023-04-12T02:57:24.827Z,8.53
2023-04-12T02:59:55.178Z,8.74
2023-04-12T03:02:31.530Z,9.15
2023-04-12T03:05:03.241Z,9.66
2023-04-12T03:07:39.782Z,10.19
2023-04-12T03:10:09.086Z,10.84
2023-04-12T03:12:40.873Z,11.06
2023-04-12T03:15:17.603Z,11.44
2023-04-12T03:17:48.974Z,11.66
2023-04-12T03:20:20.022Z,11.82
2023-04-12T03:22:59.288Z,12.07
2023-04-12T03:25:28.150Z,12.22
2023-04-12T03:28:00.338Z,12.29
2023-04-12T03:30:43.822Z,11.97
2023-04-12T03:33:11.073Z,11.82
2023-04-12T03:35:38.846Z,11.71
2023-04-12T03:38:06.716Z,11.25
2023-04-12T03:40:34.405Z,10.65
2023-04-12T03:43:02.127Z,10.40
2023-04-12T03:45:30.532Z,10.56
2023-04-12T03:48:01.120Z,10.87
2023-04-12T03:50:31.940Z,11.01
2023-04-12T03:52:59.058Z,11.27
2023-04-12T03:55:31.271Z,11.42
2023-04-12T03:58:00.689Z,11.21
2023-04-12T04:00:33.741Z,10.78
2023-04-12T04:03:07.539Z,10.38
2023-04-12T04:05:50.490Z,10.26
2023-04-12T04:08:20.718Z,10.21
2023-04-12T04:10:51.426Z,9.61
2023-04-12T04:13:20.852Z,9.36
2023-04-12T04:15:55.395Z,9.11
2023-04-12T04:18:23.403Z,9.03
2023-04-12T04:20:50.665Z,8.87
2023-04-12T04:23:18.540Z,8.41
2023-04-12T04:25:46.059Z,7.74
2023-04-12T04:28:15.810Z,7.22
2023-04-12T04:30:45.834Z,6.85
2023-04-12T04:33:15.961Z,6.50
2023-04-12T04:35:43.903Z,6.19
2023-04-12T04:38:26.575Z,5.83
2023-04-12T04:41:04.803Z,5.65
2023-04-12T04:43:48.432Z,5.44
2023-04-12T04:46:21.286Z,5.57
2023-04-12T04:48:49.806Z,5.74
2023-04-12T04:51:17.400Z,6.04
2023-04-12T04:53:46.204Z,6.08
2023-04-12T04:56:16.522Z,6.29
2023-04-12T04:58:46.197Z,6.47
2023-04-12T05:01:17.089Z,6.53
2023-04-12T05:03:49.519Z,6.56
2023-04-12T05:06:19.405Z,6.78
2023-04-12T05:08:46.527Z,7.13
2023-04-12T05:11:16.843Z,7.16
2023-04-12T05:13:44.768Z,7.21
2023-04-12T05:16:12.608Z,7.11
2023-04-12T05:18:40.116Z,7.11
2023-04-12T05:21:07.598Z,7.23
2023-04-12T05:23:36.869Z,7.64
2023-04-12T05:26:05.561Z,8.31
2023-04-12T05:28:32.950Z,8.77
2023-04-12T05:31:00.684Z,9.02
2023-04-12T05:33:36.440Z,9.27
2023-04-12T05:36:04.552Z,9.39
2023-04-12T05:38:32.313Z,9.49
2023-04-12T05:41:05.440Z,9.67
2023-04-12T05:43:34.076Z,9.86
2023-04-12T05:46:02.496Z,9.92
2023-04-12T05:48:30.812Z,9.96
2023-04-12T05:51:02.268Z,9.93
2023-04-12T05:53:32.461Z,10.12
2023-04-12T05:56:03.431Z,10.32
2023-04-12T05:58:30.785Z,10.58
2023-04-12T06:00:58.928Z,10.71
2023-04-12T06:03:26.472Z,10.69
2023-04-12T06:05:58.426Z,10.82
2023-04-12T06:08:29.041Z,10.99
2023-04-12T06:10:56.168Z,11.00
2023-04-12T06:13:24.176Z,11.12
2023-04-12T06:15:51.901Z,11.05
2023-04-12T06:18:19.828Z,10.90
2023-04-12T06:20:47.585Z,10.49
2023-04-12T06:23:14.949Z,10.33
2023-04-12T06:25:42.472Z,10.29
2023-04-12T06:28:10.141Z,10.36
2023-04-12T06:30:43.877Z,10.37
2023-04-12T06:33:11.681Z,10.33
2023-04-12T06:35:39.863Z,10.17
2023-04-12T06:38:07.426Z,9.99
2023-04-12T06:40:34.811Z,9.82
2023-04-12T06:43:02.404Z,9.73
2023-04-12T06:45:29.513Z,9.64
2023-04-12T06:47:56.978Z,9.53
2023-04-12T06:50:25.853Z,9.33
2023-04-12T06:52:53.546Z,8.93
2023-04-12T06:55:21.298Z,8.50
2023-04-12T06:57:52.054Z,8.23
2023-04-12T07:00:19.574Z,8.22
2023-04-12T07:02:47.165Z,8.24
2023-04-12T07:05:14.607Z,7.77
2023-04-12T07:07:41.749Z,7.01
2023-04-12T07:10:09.099Z,6.45
2023-04-12T07:12:36.195Z,5.84
2023-04-12T07:15:03.882Z,5.35
2023-04-12T07:17:31.162Z,5.00
2023-04-12T07:20:01.386Z,4.67
2023-04-12T07:22:28.509Z,4.54
2023-04-12T07:24:55.431Z,4.51
2023-04-12T07:27:22.735Z,4.44
2023-04-12T07:29:52.921Z,4.47
2023-04-12T07:32:20.395Z,4.31
2023-04-12T07:34:47.801Z,4.11
2023-04-12T07:37:17.696Z,4.00
2023-04-12T07:39:45.021Z,3.98
2023-04-12T07:42:12.667Z,3.81
2023-04-12T07:44:39.879Z,3.51
2023-04-12T07:47:06.969Z,3.35
2023-04-12T07:49:34.329Z,3.32
2023-04-12T07:52:01.291Z,3.35
2023-04-12T07:54:28.963Z,3.45
2023-04-12T07:57:00.353Z,3.48
2023-04-12T07:59:27.443Z,3.50
2023-04-12T08:01:54.923Z,3.46
2023-04-12T08:04:22.135Z,3.72
2023-04-12T08:06:49.357Z,3.92
2023-04-12T08:09:16.767Z,3.98
2023-04-12T08:11:44.322Z,3.94
2023-04-12T08:14:11.409Z,3.95
2023-04-12T08:16:38.541Z,3.92
2023-04-12T08:19:05.517Z,3.99
2023-04-12T08:21:33.797Z,4.08
2023-04-12T08:24:01.477Z,4.33
2023-04-12T08:26:29.530Z,4.80
2023-04-12T08:28:58.013Z,5.29
2023-04-12T08:31:25.460Z,5.09
2023-04-12T08:33:53.850Z,4.75
2023-04-12T08:36:21.203Z,4.43
2023-04-12T08:38:52.152Z,4.24
2023-04-12T08:41:20.109Z,4.36
2023-04-12T08:43:48.389Z,4.40
2023-04-12T08:46:16.111Z,4.49
2023-04-12T08:48:47.951Z,4.63
2023-04-12T08:51:16.980Z,4.58
2023-04-12T08:53:44.463Z,4.39
2023-04-12T08:56:12.302Z,4.21
2023-04-12T08:58:45.669Z,4.14
2023-04-12T09:01:14.961Z,4.34
2023-04-12T09:03:43.020Z,4.53
2023-04-12T09:06:11.123Z,4.75
2023-04-12T09:08:49.702Z,5.00
2023-04-12T09:11:27.729Z,5.07
2023-04-12T09:13:55.920Z,4.99
2023-04-12T09:16:40.375Z,4.92
2023-04-12T09:19:07.961Z,4.92
2023-04-12T09:21:35.795Z,5.11
2023-04-12T09:24:10.366Z,5.34
2023-04-12T09:26:40.209Z,5.38
2023-04-12T09:29:07.654Z,5.45
2023-04-12T09:31:35.685Z,5.49
2023-04-12T09:34:09.614Z,5.52
2023-04-12T09:36:40.153Z,5.52
2023-04-12T09:39:08.216Z,5.46
2023-04-12T09:41:36.245Z,5.33
2023-04-12T09:44:03.949Z,5.33
2023-04-12T09:46:31.540Z,5.34
2023-04-12T09:48:58.956Z,5.37
2023-04-12T09:51:28.204Z,5.40
2023-04-12T09:54:00.959Z,5.49
2023-04-12T09:56:36.280Z,5.79
2023-04-12T09:59:04.976Z,6.02
2023-04-12T10:01:39.045Z,6.16
2023-04-12T10:04:07.803Z,6.27
2023-04-12T10:06:36.049Z,6.30
2023-04-12T10:09:06.469Z,6.31
2023-04-12T10:11:37.453Z,6.25
2023-04-12T10:14:05.257Z,6.36
2023-04-12T10:16:34.008Z,6.27
2023-04-12T10:19:03.045Z,6.16
2023-04-12T10:21:31.075Z,6.12
2023-04-12T10:23:58.689Z,6.12
2023-04-12T10:26:26.113Z,6.22
2023-04-12T10:29:32.736Z,6.34
2023-04-12T10:32:23.625Z,6.49
2023-04-12T10:34:56.269Z,6.47
2023-04-12T10:38:01.554Z,6.46
2023-04-12T10:40:29.725Z,6.41
2023-04-12T10:43:18.807Z,6.36
2023-04-12T10:45:46.721Z,6.29
2023-04-12T10:48:37.968Z,6.18
2023-04-12T10:51:26.475Z,6.02
2023-04-12T10:54:08.096Z,5.92
2023-04-12T10:56:39.535Z,5.81
2023-04-12T10:59:09.574Z,5.61
2023-04-12T11:02:07.240Z,5.45
2023-04-12T11:04:40.204Z,5.29
2023-04-12T11:07:12.302Z,5.26
2023-04-12T11:09:42.736Z,5.24
2023-04-12T11:12:14.808Z,5.21
2023-04-12T11:14:49.599Z,5.22
2023-04-12T11:17:18.736Z,5.22
2023-04-12T11:19:46.513Z,5.16
2023-04-12T11:22:15.549Z,5.12
2023-04-12T11:24:47.816Z,5.17
2023-04-12T11:27:16.451Z,5.15
2023-04-12T11:29:44.222Z,5.10
2023-04-12T11:32:15.658Z,5.05
2023-04-12T11:34:45.966Z,4.89
2023-04-12T11:37:13.790Z,4.73
2023-04-12T11:39:42.642Z,4.62
2023-04-12T11:42:18.398Z,4.44
2023-04-12T11:44:55.310Z,4.30
2023-04-12T11:47:25.785Z,4.13
2023-04-12T11:49:55.718Z,4.02
2023-04-12T11:52:30.377Z,3.90
2023-04-12T11:55:09.177Z,3.77
2023-04-12T11:57:36.319Z,3.64
2023-04-12T12:00:06.257Z,3.54
2023-04-12T12:02:48.855Z,3.44
2023-04-12T12:05:24.231Z,3.36
2023-04-12T12:07:52.861Z,3.32
2023-04-12T12:10:37.728Z,3.30
2023-04-12T12:13:11.942Z,3.28
2023-04-12T12:15:39.434Z,3.33
2023-04-12T12:18:10.309Z,3.33
2023-04-12T12:20:42.250Z,3.36
2023-04-12T12:23:09.679Z,3.43
2023-04-12T12:25:37.023Z,3.45
2023-04-12T12:28:05.384Z,3.43
2023-04-12T12:30:40.201Z,3.48
2023-04-12T12:33:07.847Z,3.48
2023-04-12T12:35:35.049Z,3.51
2023-04-12T12:38:06.000Z,3.53
2023-04-12T12:40:33.181Z,3.53
2023-04-12T12:43:00.744Z,3.52
2023-04-12T12:45:29.008Z,3.45
2023-04-12T12:47:59.852Z,3.35
2023-04-12T12:50:28.362Z,3.26
2023-04-12T12:52:55.951Z,3.17
2023-04-12T12:55:23.975Z,3.10
2023-04-12T12:58:07.552Z,2.97
2023-04-12T13:00:36.313Z,2.87
2023-04-12T13:03:04.275Z,2.75
2023-04-12T13:05:31.920Z,2.69
2023-04-12T13:07:59.280Z,2.59
2023-04-12T13:10:27.085Z,2.54
2023-04-12T13:12:54.323Z,2.51
2023-04-12T13:15:24.302Z,2.45
2023-04-12T13:17:53.170Z,2.44
2023-04-12T13:20:21.128Z,2.47
2023-04-12T13:22:48.399Z,2.47
2023-04-12T13:25:15.925Z,2.43
2023-04-12T13:27:43.174Z,2.31
2023-04-12T13:30:11.251Z,2.14
2023-04-12T13:32:39.081Z,2.02
2023-04-12T13:35:06.559Z,1.88
2023-04-12T13:37:34.579Z,1.70
2023-04-12T13:40:01.848Z,1.58
2023-04-12T13:42:28.852Z,1.48
2023-04-12T13:44:56.888Z,1.40
2023-04-12T13:47:24.039Z,1.26
2023-04-12T13:49:51.575Z,1.15
2023-04-12T13:52:18.957Z,1.05
2023-04-12T13:54:46.694Z,0.94
2023-04-12T13:57:14.411Z,0.84
2023-04-12T13:59:41.811Z,0.75
2023-04-12T14:02:09.280Z,0.72
2023-04-12T14:04:37.265Z,0.64
2023-04-12T14:07:04.726Z,0.58
2023-04-12T14:09:32.808Z,0.46
2023-04-12T14:12:01.306Z,0.47
2023-04-12T14:14:28.537Z,0.39
2023-04-12T14:17:01.501Z,0.37
2023-04-12T14:19:29.253Z,0.26
2023-04-12T14:21:56.889Z,0.19
2023-04-12T14:24:24.086Z,0.15
2023-04-12T14:26:51.560Z,0.08
2023-04-12T14:29:19.120Z,0.04
2023-04-12T14:31:46.612Z,-0.01
2023-04-12T14:34:13.935Z,-0.06
2023-04-12T14:36:41.112Z,-0.09
2023-04-12T14:39:10.808Z,-0.12
2023-04-12T14:41:40.461Z,-0.18
2023-04-12T14:44:07.989Z,-0.22
2023-04-12T14:46:35.519Z,-0.24
2023-04-12T14:49:03.183Z,-0.28
2023-04-12T14:51:31.889Z,-0.33
2023-04-12T14:53:59.916Z,-0.35
2023-04-12T14:56:30.317Z,-0.40
2023-04-12T14:58:59.570Z,-0.47
2023-04-12T15:01:27.419Z,-0.49
2023-04-12T15:03:54.945Z,-0.52
2023-04-12T15:06:23.474Z,-0.56
2023-04-12T15:08:54.636Z,-0.57
2023-04-12T15:11:26.929Z,-0.57
2023-04-12T15:13:54.741Z,-0.61
2023-04-12T15:16:22.553Z,-0.65
2023-04-12T15:18:50.768Z,-0.68
2023-04-12T15:21:18.404Z,-0.68
2023-04-12T15:23:45.878Z,-0.69
2023-04-12T15:26:14.189Z,-0.67
2023-04-12T15:28:42.774Z,-0.70
2023-04-12T15:31:12.261Z,-0.71
2023-04-12T15:33:39.874Z,-0.78
2023-04-12T15:36:07.750Z,-0.76
2023-04-12T15:38:40.847Z,-0.76
2023-04-12T15:41:08.479Z,-0.78
2023-04-12T15:43:35.580Z,-0.78
2023-04-12T15:46:03.486Z,-0.83
2023-04-12T15:48:30.870Z,-0.82
2023-04-12T15:51:00.205Z,-0.78
2023-04-12T15:53:27.774Z,-0.76
2023-04-12T15:55:55.863Z,-0.77
2023-04-12T15:58:24.036Z,-0.76
2023-04-12T16:00:53.643Z,-0.75
2023-04-12T16:03:23.080Z,-0.75
2023-04-12T16:05:54.412Z,-0.77
2023-04-12T16:08:23.067Z,-0.77
2023-04-12T16:10:51.006Z,-0.78
2023-04-12T16:13:18.809Z,-0.79
2023-04-12T16:15:46.782Z,-0.82
2023-04-12T16:18:14.529Z,-0.83
2023-04-12T16:20:41.775Z,-0.86
2023-04-12T16:23:09.554Z,-0.86
2023-04-12T16:25:37.326Z,-0.87
2023-04-12T16:28:05.742Z,-0.91
2023-04-12T16:30:33.832Z,-0.91
2023-04-12T16:33:01.392Z,-0.93
2023-04-12T16:35:28.932Z,-0.95
2023-04-12T16:37:56.404Z,-0.98
2023-04-12T16:40:24.216Z,-0.98
2023-04-12T16:42:51.963Z,-0.99
2023-04-12T16:45:20.794Z,-1.01
2023-04-12T16:47:49.299Z,-1.04
2023-04-12T16:50:17.444Z,-1.03
2023-04-12T16:52:44.945Z,-1.06
2023-04-12T16:55:12.758Z,-1.05
2023-04-12T16:57:44.588Z,-1.07
2023-04-12T17:00:23.829Z,-1.14
2023-04-12T17:02:52.809Z,-1.17
2023-04-12T17:05:21.296Z,-1.21
2023-04-12T17:07:54.260Z,-1.19
2023-04-12T17:10:24.168Z,-1.26
2023-04-12T17:12:54.839Z,-1.27
2023-04-12T17:15:22.285Z,-1.30
2023-04-12T17:17:52.594Z,-1.31
2023-04-12T17:20:22.007Z,-1.32
2023-04-12T17:22:49.705Z,-1.32
2023-04-12T17:25:19.002Z,-1.34
2023-04-12T17:27:49.059Z,-1.37
2023-04-12T17:30:17.832Z,-1.35
2023-04-12T17:32:49.684Z,-1.39
2023-04-12T17:35:18.087Z,-1.40
2023-04-12T17:37:45.796Z,-1.43
2023-04-12T17:40:14.004Z,-1.47
2023-04-12T17:42:41.742Z,-1.48
2023-04-12T17:45:12.183Z,-1.50
2023-04-12T17:47:42.834Z,-1.52
2023-04-12T17:50:10.843Z,-1.54
2023-04-12T17:52:38.564Z,-1.57
2023-04-12T17:55:07.082Z,-1.55
2023-04-12T17:57:34.739Z,-1.53
2023-04-12T18:00:02.269Z,-1.53
2023-04-12T18:02:40.198Z,-1.58
2023-04-12T18:05:07.924Z,-1.59
2023-04-12T18:07:35.178Z,-1.64
2023-04-12T18:10:02.994Z,-1.68
2023-04-12T18:12:30.793Z,-1.73
2023-04-12T18:14:57.786Z,-1.76
2023-04-12T18:17:26.609Z,-1.81
2023-04-12T18:19:54.482Z,-1.85
2023-04-12T18:22:23.549Z,-1.88
2023-04-12T18:24:50.530Z,-1.91
2023-04-12T18:27:17.664Z,-1.94
2023-04-12T18:29:45.081Z,-1.99
2023-04-12T18:32:12.544Z,-2.03
2023-04-12T18:34:39.551Z,-2.05
2023-04-12T18:37:07.553Z,-2.07
2023-04-12T18:39:35.372Z,-2.07
2023-04-12T18:42:02.656Z,-2.07
2023-04-12T18:44:30.076Z,-2.07
2023-04-12T18:46:57.379Z,-2.07
2023-04-12T18:49:26.022Z,-2.07
2023-04-12T18:51:53.566Z,-2.04
2023-04-12T18:54:21.147Z,-2.06
2023-04-12T18:56:49.274Z,-2.05
2023-04-12T18:59:17.271Z,-2.05
2023-04-12T19:01:45.857Z,-2.04
2023-04-12T19:04:15.954Z,-2.07
2023-04-12T19:06:44.592Z,-2.13
2023-04-12T19:09:12.160Z,-2.16
2023-04-12T19:11:39.665Z,-2.21
2023-04-12T19:14:07.954Z,-2.27
2023-04-12T19:16:36.114Z,-2.31
2023-04-12T19:19:05.946Z,-2.35
2023-04-12T19:21:34.233Z,-2.42
2023-04-12T19:24:01.607Z,-2.41
2023-04-12T19:26:32.065Z,-2.47
2023-04-12T19:29:02.184Z,-2.48
2023-04-12T19:31:29.527Z,-2.53
2023-04-12T19:33:58.402Z,-2.54
2023-04-12T19:36:27.133Z,-2.60
2023-04-12T19:38:54.838Z,-2.60
2023-04-12T19:41:23.726Z,-2.62
2023-04-12T19:43:51.001Z,-2.65
2023-04-12T19:46:18.404Z,-2.68
2023-04-12T19:48:46.343Z,-2.72
2023-04-12T19:51:14.927Z,-2.71
2023-04-12T19:53:42.644Z,-2.72
2023-04-12T19:56:12.386Z,-2.74
2023-04-12T19:58:40.605Z,-2.74
2023-04-12T20:01:09.601Z,-2.78
2023-04-12T20:03:37.679Z,-2.78
2023-04-12T20:06:05.147Z,-2.80
2023-04-12T20:08:32.824Z,-2.79
2023-04-12T20:11:00.008Z,-2.82
2023-04-12T20:13:28.395Z,-2.79
2023-04-12T20:15:55.794Z,-2.81
2023-04-12T20:18:23.374Z,-2.81
2023-04-12T20:20:51.632Z,-2.85
2023-04-12T20:23:19.631Z,-2.87
2023-04-12T20:25:48.578Z,-2.87
2023-04-12T20:28:16.954Z,-2.86
2023-04-12T20:30:46.999Z,-2.87
2023-04-12T20:33:14.809Z,-2.88
2023-04-12T20:35:42.156Z,-2.88
2023-04-12T20:38:09.347Z,-2.88
2023-04-12T20:40:36.660Z,-2.90
2023-04-12T20:43:04.339Z,-2.89
2023-04-12T20:45:31.893Z,-2.85
2023-04-12T20:47:59.412Z,-2.85
2023-04-12T20:50:26.606Z,-2.87
2023-04-12T20:52:56.017Z,-2.92
2023-04-12T20:55:24.898Z,-2.95
2023-04-12T20:57:55.878Z,-2.94
2023-04-12T21:00:23.532Z,-2.92
2023-04-12T21:02:52.474Z,-2.89
2023-04-12T21:05:20.292Z,-2.87
2023-04-12T21:07:47.752Z,-2.94
2023-04-12T21:10:15.249Z,-2.91
2023-04-12T21:12:44.529Z,-2.93
2023-04-12T21:15:12.126Z,-2.95
2023-04-12T21:17:40.152Z,-2.97
2023-04-12T21:20:13.348Z,-3.04
2023-04-12T21:22:41.957Z,-3.09
2023-04-12T21:25:14.819Z,-3.14
2023-04-12T21:27:42.478Z,-3.15
2023-04-12T21:30:13.798Z,-3.17
2023-04-12T21:32:42.346Z,-3.19
2023-04-12T21:35:10.778Z,-3.19
2023-04-12T21:37:39.430Z,-3.20
2023-04-12T21:40:12.145Z,-3.18
2023-04-12T21:42:39.398Z,-3.17
2023-04-12T21:45:08.583Z,-3.21
2023-04-12T21:47:35.780Z,-3.19
2023-04-12T21:50:03.014Z,-3.19
2023-04-12T21:52:30.646Z,-3.18
2023-04-12T21:54:58.070Z,-3.15
2023-04-12T21:57:25.435Z,-3.13
2023-04-12T21:59:52.419Z,-3.07
2023-04-12T22:02:19.701Z,-3.06
2023-04-12T22:04:47.661Z,-3.01
2023-04-12T22:07:17.462Z,-3.03
2023-04-12T22:09:45.035Z,-2.99
2023-04-12T22:12:13.022Z,-2.96
2023-04-12T22:14:46.318Z,-2.94
2023-04-12T22:17:14.500Z,-2.91
2023-04-12T22:19:42.380Z,-2.89
2023-04-12T22:22:10.854Z,-2.87
2023-04-12T22:24:38.478Z,-2.84
2023-04-12T22:27:06.976Z,-2.82
2023-04-12T22:29:34.308Z,-2.85
2023-04-12T22:32:02.405Z,-2.84
2023-04-12T22:34:29.717Z,-2.86
2023-04-12T22:36:59.677Z,-2.84
2023-04-12T22:39:27.080Z,-2.85
2023-04-12T22:41:57.442Z,-2.85
2023-04-12T22:44:25.161Z,-2.88
2023-04-12T22:46:54.220Z,-2.90
2023-04-12T22:49:27.266Z,-2.92
2023-04-12T22:51:54.424Z,-2.91
2023-04-12T22:54:23.108Z,-2.96
2023-04-12T22:56:50.416Z,-2.92
2023-04-12T22:59:18.684Z,-2.94
2023-04-12T23:01:46.581Z,-2.92
2023-04-12T23:04:14.389Z,-2.91
2023-04-12T23:06:43.322Z,-2.90
2023-04-12T23:09:11.567Z,-2.87
2023-04-12T23:11:39.629Z,-2.82
2023-04-12T23:14:07.839Z,-2.82
2023-04-12T23:16:35.357Z,-2.75
2023-04-12T23:19:05.189Z,-2.66
2023-04-12T23:21:33.101Z,-2.59
2023-04-12T23:24:00.773Z,-2.56
2023-04-12T23:26:28.104Z,-2.50
2023-04-12T23:28:55.418Z,-2.41
2023-04-12T23:31:23.125Z,-2.33
2023-04-12T23:33:50.402Z,-2.20
2023-04-12T23:36:21.671Z,-1.59
2023-04-12T23:38:55.024Z,-0.45
2023-04-12T23:41:22.235Z,0.88
2023-04-12T23:43:49.345Z,1.75
2023-04-12T23:46:17.004Z,2.48
2023-04-12T23:48:44.199Z,3.30
2023-04-12T23:51:11.375Z,4.15
2023-04-12T23:53:38.908Z,4.93
2023-04-12T23:56:06.689Z,5.70
2023-04-12T23:58:34.381Z,6.04
